Time;durP1;ratioP1;P1;durP2;ratioP2;P2;SDS_P1;SDS_P2;PMS_P1;PMS_P2;Temp;Humidity;BMP_temperature;BMP_pressure;BME280_temperature;BME280_humidity;BME280_pressure;Samples;Min_cycle;Max_cycle;Signal;HPM_P1;HPM_P2
2023/01/06 00:01:05;;;;;;;18.90;4.65;;;21.30;85.70;;;;;;5031345;28;20128;-72
2023/01/06 00:03:32;;;;;;;;;;;21.20;86.70;;;;;;5032016;28;20192;-71
2023/01/06 00:06:00;;;;;;;22.70;4.55;;;21.00;86.80;;;;;;5032231;28;19977;-74
2023/01/06 00:08:26;;;;;;;18.90;4.85;;;20.90;86.30;;;;;;5031229;28;20073;-72
2023/01/06 00:10:53;;;;;;;16.15;4.82;;;20.90;86.60;;;;;;5031239;28;20603;-72
2023/01/06 00:13:20;;;;;;;20.58;5.85;;;20.90;86.90;;;;;;5031214;28;20101;-72
2023/01/06 00:15:46;;;;;;;23.17;5.00;;;20.80;87.10;;;;;;5029974;28;20124;-72
2023/01/06 00:18:13;;;;;;;20.42;5.18;;;20.80;87.60;;;;;;5029924;28;20089;-73
2023/01/06 00:20:39;;;;;;;20.40;5.55;;;20.70;88.90;;;;;;5031304;28;20470;-71
2023/01/06 00:23:06;;;;;;;32.75;6.57;;;20.60;89.60;;;;;;5029599;28;20090;-72
2023/01/06 00:25:32;;;;;;;19.52;5.70;;;20.50;89.20;;;;;;5030546;28;20113;-72
2023/01/06 00:27:58;;;;;;;20.98;6.25;;;20.30;89.40;;;;;;5030794;28;20074;-73
2023/01/06 00:30:25;;;;;;;24.17;5.95;;;20.30;89.90;;;;;;5030650;28;20454;-72
2023/01/06 00:32:51;;;;;;;25.35;5.25;;;20.20;90.40;;;;;;5032876;28;20074;-71
2023/01/06 00:35:18;;;;;;;19.67;6.55;;;20.10;90.40;;;;;;5031599;28;20070;-72
2023/01/06 00:37:44;;;;;;;28.10;6.55;;;20.00;90.40;;;;;;5030984;28;20086;-75
2023/01/06 00:40:11;;;;;;;23.38;6.10;;;19.90;90.20;;;;;;5030829;28;20120;-71
2023/01/06 00:42:37;;;;;;;22.08;5.28;;;19.80;90.20;;;;;;5030510;28;20078;-72
2023/01/06 00:45:04;;;;;;;30.23;7.95;;;19.80;90.00;;;;;;5030464;28;20077;-71
2023/01/06 00:47:30;;;;;;;30.42;7.90;;;19.60;91.40;;;;;;5030282;28;20109;-73
2023/01/06 00:49:56;;;;;;;23.67;8.00;;;19.40;92.80;;;;;;5030758;28;20082;-71
2023/01/06 00:52:23;;;;;;;25.75;7.25;;;19.30;94.20;;;;;;5030403;28;20077;-71
2023/01/06 00:54:49;;;;;;;27.92;7.72;;;19.20;95.20;;;;;;5030668;28;20555;-72
2023/01/06 00:57:16;;;;;;;29.95;7.40;;;19.10;95.70;;;;;;5030210;28;20545;-72
2023/01/06 00:59:42;;;;;;;25.98;8.00;;;19.10;96.20;;;;;;5031345;28;20544;-70
2023/01/06 01:02:08;;;;;;;23.23;6.97;;;19.00;96.40;;;;;;5031387;28;20164;-70
2023/01/06 01:04:35;;;;;;;26.83;7.72;;;18.90;96.90;;;;;;5031528;28;20435;-72
2023/01/06 01:07:01;;;;;;;33.17;9.60;;;18.80;97.10;;;;;;5030637;28;20132;-69
2023/01/06 01:09:29;;;;;;;31.85;11.50;;;18.80;97.30;;;;;;5030549;28;20093;-74
2023/01/06 01:12:09;;;;;;;26.08;8.77;;;18.70;97.40;;;;;;5030282;28;20072;-75
2023/01/06 01:14:47;;;;;;;26.15;7.55;;;18.70;97.50;;;;;;5029550;28;20074;-73
2023/01/06 01:17:23;;;;;;;28.13;8.10;;;18.50;97.60;;;;;;5030435;28;20427;-73
2023/01/06 01:19:53;;;;;;;18.13;7.33;;;18.50;97.20;;;;;;5030379;28;20176;-73
2023/01/06 01:22:19;;;;;;;20.15;6.82;;;18.50;97.10;;;;;;5030162;28;20871;-72
2023/01/06 01:24:46;;;;;;;30.23;7.60;;;18.50;96.60;;;;;;5030167;28;20070;-74
2023/01/06 01:27:13;;;;;;;13.70;5.35;;;18.40;96.20;;;;;;5030015;28;20082;-74
2023/01/06 01:29:39;;;;;;;12.50;4.43;;;18.40;94.60;;;;;;5032041;28;20526;-73
2023/01/06 01:32:06;;;;;;;15.40;3.50;;;18.40;93.30;;;;;;5034607;28;20070;-72
2023/01/06 01:34:33;;;;;;;10.18;3.08;;;18.40;91.60;;;;;;5035618;28;20486;-74
2023/01/06 01:37:00;;;;;;;10.02;3.45;;;18.40;91.20;;;;;;5034425;28;20073;-70
2023/01/06 01:39:28;;;;;;;8.43;2.00;;;18.40;90.80;;;;;;5034049;28;20077;-73
2023/01/06 01:41:56;;;;;;;14.48;4.55;;;18.40;90.10;;;;;;5033886;28;20070;-73
2023/01/06 01:44:55;;;;;;;14.88;4.85;;;18.40;90.00;;;;;;5034029;28;20550;-71
2023/01/06 01:47:48;;;;;;;13.77;2.10;;;18.30;89.80;;;;;;5033567;28;20180;-72
2023/01/06 01:50:27;;;;;;;11.25;2.03;;;18.30;89.90;;;;;;5033691;28;20090;-72
2023/01/06 01:53:02;;;;;;;10.63;1.75;;;18.30;90.00;;;;;;5032981;28;20104;-72
2023/01/06 01:55:30;;;;;;;11.18;1.73;;;18.30;90.20;;;;;;5033850;28;20124;-70
2023/01/06 01:58:03;;;;;;;18.20;4.32;;;18.20;90.20;;;;;;5033439;28;20093;-72
2023/01/06 02:00:30;;;;;;;13.70;2.08;;;18.20;90.10;;;;;;5031887;28;20109;-75
2023/01/06 02:02:57;;;;;;;20.27;3.10;;;18.10;90.00;;;;;;5032638;28;20077;-72
2023/01/06 02:05:26;;;;;;;18.02;2.78;;;18.10;89.90;;;;;;5030698;28;20078;-75
2023/01/06 02:07:56;;;;;;;22.13;3.20;;;18.10;89.60;;;;;;5031834;28;20078;-73
2023/01/06 02:10:24;;;;;;;12.30;3.47;;;18.10;89.20;;;;;;5032611;28;20133;-73
2023/01/06 02:12:57;;;;;;;13.10;2.22;;;18.10;88.90;;;;;;5034494;28;20132;-72
2023/01/06 02:15:30;;;;;;;8.75;1.63;;;18.20;89.10;;;;;;5033962;28;20503;-73
2023/01/06 02:18:22;;;;;;;6.07;1.48;;;18.20;88.80;;;;;;5032555;28;20074;-74
2023/01/06 02:21:04;;;;;;;9.70;1.65;;;18.20;88.60;;;;;;5031427;28;20066;-72
2023/01/06 02:23:44;;;;;;;18.45;2.95;;;18.20;88.70;;;;;;5032642;28;20089;-73
2023/01/06 02:26:35;;;;;;;9.52;2.95;;;18.10;89.00;;;;;;5032166;28;20472;-70
2023/01/06 02:29:05;;;;;;;13.93;4.30;;;18.10;89.10;;;;;;5029709;28;20223;-72
2023/01/06 02:31:52;;;;;;;16.95;4.43;;;18.00;88.90;;;;;;5031754;28;20090;-71
2023/01/06 02:34:28;;;;;;;14.10;5.20;;;18.00;89.00;;;;;;5031660;28;20086;-70
2023/01/06 02:36:57;;;;;;;10.32;4.20;;;17.90;89.30;;;;;;5032751;28;20191;-72
2023/01/06 02:40:08;;;;;;;15.05;3.55;;;17.90;89.40;;;;;;5032724;28;20168;-70
2023/01/06 02:42:53;;;;;;;20.83;7.15;;;17.90;89.70;;;;;;5028493;28;20092;-69
2023/01/06 02:45:48;;;;;;;11.77;2.83;;;17.80;90.10;;;;;;5031779;28;20077;-72
2023/01/06 02:48:22;;;;;;;9.50;2.38;;;17.80;90.00;;;;;;5027350;28;20494;-71
2023/01/06 02:50:54;;;;;;;11.65;2.15;;;17.80;90.10;;;;;;5031082;28;20082;-72
2023/01/06 02:53:27;;;;;;;10.90;2.10;;;17.70;90.10;;;;;;5029998;28;20566;-70
2023/01/06 02:55:56;;;;;;;18.85;3.67;;;17.70;90.10;;;;;;5031182;28;20078;-70
2023/01/06 02:58:28;;;;;;;18.98;2.40;;;17.70;90.20;;;;;;5031435;28;20083;-72
2023/01/06 03:01:21;;;;;;;19.20;5.15;;;17.70;90.20;;;;;;5034088;28;20081;-73
2023/01/06 03:03:49;;;;;;;22.70;5.80;;;17.60;90.30;;;;;;5032339;28;20520;-70
2023/01/06 03:06:20;;;;;;;16.40;4.32;;;17.60;90.40;;;;;;5030715;28;20074;-75
2023/01/06 03:08:50;;;;;;;12.00;4.60;;;17.60;90.50;;;;;;5030307;28;20132;-74
2023/01/06 03:11:17;;;;;;;13.85;4.13;;;17.60;90.60;;;;;;5030407;28;20153;-71
2023/01/06 03:13:52;;;;;;;16.75;3.20;;;17.50;90.80;;;;;;5033039;28;20077;-75
2023/01/06 03:16:20;;;;;;;8.05;2.70;;;17.40;91.00;;;;;;5028707;28;20062;-72
2023/01/06 03:18:49;;;;;;;13.13;2.65;;;17.20;91.20;;;;;;5031977;28;20165;-75
2023/01/06 03:21:20;;;;;;;11.70;3.00;;;17.20;91.70;;;;;;5031721;28;20573;-72
2023/01/06 03:23:47;;;;;;;5.82;2.38;;;17.10;91.40;;;;;;5029766;28;21082;-69
2023/01/06 03:26:13;;;;;;;7.13;1.65;;;17.20;90.80;;;;;;5029758;28;20145;-71
2023/01/06 03:28:40;;;;;;;9.43;1.90;;;17.30;90.20;;;;;;5031320;28;20084;-70
2023/01/06 03:31:28;;;;;;;6.55;1.33;;;17.40;90.00;;;;;;5031604;28;20132;-69
2023/01/06 03:34:06;;;;;;;13.00;2.08;;;17.40;89.50;;;;;;5029964;28;20101;-71
2023/01/06 03:37:07;;;;;;;9.23;1.42;;;17.60;89.50;;;;;;5031477;28;20555;-74
2023/01/06 03:39:53;;;;;;;12.20;1.88;;;17.60;90.00;;;;;;4989429;28;20169;-71
2023/01/06 03:45:49;;;;;;;10.02;1.80;;;17.60;90.60;;;;;;5029867;28;20177;-72
2023/01/06 03:48:32;;;;;;;15.35;1.73;;;17.60;90.80;;;;;;5031532;28;20642;-72
2023/01/06 03:51:45;;;;;;;13.75;2.05;;;17.50;91.00;;;;;;5033913;28;20088;-70
2023/01/06 03:54:17;;;;;;;11.63;2.30;;;17.50;91.30;;;;;;5030346;28;20636;-71
2023/01/06 03:57:04;;;;;;;20.27;2.78;;;17.40;91.60;;;;;;5030525;28;20082;-71
2023/01/06 03:59:36;;;;;;;12.38;2.35;;;17.40;91.80;;;;;;5032117;28;20073;-73
2023/01/06 04:02:04;;;;;;;9.57;2.00;;;17.30;92.00;;;;;;5031455;28;20074;-74
2023/01/06 04:04:31;;;;;;;13.50;2.70;;;17.20;92.00;;;;;;5031479;28;20174;-72
2023/01/06 04:06:57;;;;;;;17.25;2.28;;;17.20;92.00;;;;;;5031240;28;20090;-70
2023/01/06 04:09:23;;;;;;;16.10;2.60;;;17.10;92.00;;;;;;5029325;28;20226;-69
2023/01/06 04:14:35;;;;;;;24.08;4.03;;;17.00;92.10;;;;;;5031216;28;20127;-68
2023/01/06 04:17:01;;;;;;;34.08;4.10;;;17.10;92.10;;;;;;5030866;28;20074;-70
2023/01/06 04:19:27;;;;;;;41.40;4.43;;;17.10;92.00;;;;;;5033218;28;20069;-72
2023/01/06 04:21:54;;;;;;;20.52;3.22;;;17.10;91.50;;;;;;5030986;28;20085;-73
2023/01/06 04:24:20;;;;;;;33.35;3.40;;;17.20;91.40;;;;;;5031018;28;20256;-73
2023/01/06 04:26:46;;;;;;;35.97;3.85;;;17.20;91.20;;;;;;5031200;28;20116;-71
2023/01/06 04:29:13;;;;;;;36.88;4.30;;;17.20;91.10;;;;;;5034220;28;20096;-74
2023/01/06 04:31:39;;;;;;;30.35;3.53;;;17.20;91.00;;;;;;5032481;28;20078;-71
2023/01/06 04:34:06;;;;;;;25.70;2.85;;;17.30;91.10;;;;;;5030664;28;20062;-70
2023/01/06 04:36:33;;;;;;;19.35;3.22;;;17.30;91.20;;;;;;5031906;28;20089;-71
2023/01/06 04:38:59;;;;;;;24.50;3.10;;;17.20;91.30;;;;;;5031498;28;20082;-72
2023/01/06 04:41:25;;;;;;;28.48;3.85;;;17.20;91.40;;;;;;5031022;28;20073;-74
2023/01/06 04:43:52;;;;;;;26.92;2.60;;;17.10;91.40;;;;;;5030693;28;20093;-73
2023/01/06 04:46:18;;;;;;;21.95;3.30;;;17.10;91.40;;;;;;5031245;28;20078;-74
2023/01/06 04:48:45;;;;;;;25.63;3.30;;;17.10;91.50;;;;;;5036221;28;20089;-76
2023/01/06 04:51:11;;;;;;;32.75;10.60;;;17.10;91.40;;;;;;5030381;28;20563;-73
2023/01/06 04:53:40;;;;;;;45.95;10.68;;;17.00;91.40;;;;;;5030899;28;20074;-71
2023/01/06 04:56:09;;;;;;;28.30;7.28;;;16.90;91.50;;;;;;5029633;28;20062;-71
2023/01/06 04:58:36;;;;;;;24.75;2.88;;;17.00;91.30;;;;;;5030519;28;20544;-73
2023/01/06 05:01:06;;;;;;;22.70;4.07;;;17.00;91.20;;;;;;5030162;28;20153;-72
2023/01/06 05:03:33;;;;;;;18.20;3.00;;;17.00;90.80;;;;;;5029907;28;20519;-73
2023/01/06 05:06:02;;;;;;;19.85;3.33;;;17.00;90.60;;;;;;5030823;28;20082;-73
2023/01/06 05:08:30;;;;;;;18.75;3.28;;;17.10;90.30;;;;;;5030407;28;20078;-72
2023/01/06 05:11:04;;;;;;;18.10;3.92;;;17.10;90.20;;;;;;5029276;28;20192;-72
2023/01/06 05:13:31;;;;;;;24.30;3.13;;;17.10;90.00;;;;;;5029793;28;20070;-73
2023/01/06 05:15:58;;;;;;;23.38;3.10;;;17.10;90.10;;;;;;5030303;28;20093;-75
2023/01/06 05:18:24;;;;;;;18.65;3.45;;;17.10;90.30;;;;;;5030264;28;20161;-74
2023/01/06 05:20:52;;;;;;;18.88;3.70;;;17.00;89.80;;;;;;5030285;28;20074;-71
2023/01/06 05:23:18;;;;;;;24.50;3.33;;;17.00;88.50;;;;;;5029069;28;20117;-73
2023/01/06 05:25:45;;;;;;;23.27;3.83;;;17.00;88.10;;;;;;5030143;28;20168;-72
2023/01/06 05:28:13;;;;;;;23.42;2.88;;;17.10;87.70;;;;;;5030100;28;20101;-74
2023/01/06 05:30:39;;;;;;;14.20;3.10;;;17.10;87.40;;;;;;5028662;28;20147;-73
2023/01/06 05:33:06;;;;;;;23.05;3.58;;;17.00;87.30;;;;;;5030033;28;20077;-73
2023/01/06 05:35:32;;;;;;;24.80;3.63;;;17.00;87.30;;;;;;5030702;28;20518;-74
2023/01/06 05:37:59;;;;;;;19.92;2.75;;;17.10;87.20;;;;;;5030640;28;20443;-75
2023/01/06 05:40:25;;;;;;;15.82;3.95;;;17.10;87.50;;;;;;5029879;28;20085;-69
2023/01/06 05:42:55;;;;;;;22.38;4.18;;;17.00;87.20;;;;;;5029338;28;20081;-69
2023/01/06 05:45:23;;;;;;;18.05;3.58;;;16.90;87.30;;;;;;5028886;28;20085;-70
2023/01/06 05:47:49;;;;;;;13.27;3.22;;;17.00;86.80;;;;;;5029276;28;20090;-69
2023/01/06 05:50:16;;;;;;;17.02;3.03;;;16.90;86.90;;;;;;5029264;28;20094;-67
2023/01/06 05:52:42;;;;;;;18.40;3.00;;;16.90;87.20;;;;;;5029098;28;20524;-70
2023/01/06 05:55:09;;;;;;;15.90;3.25;;;16.90;87.40;;;;;;5029793;28;20117;-69
2023/01/06 05:57:36;;;;;;;24.92;3.20;;;16.90;87.40;;;;;;5029104;28;20535;-71
2023/01/06 06:00:07;;;;;;;20.95;3.13;;;16.80;87.50;;;;;;5029423;28;20097;-69
2023/01/06 06:02:33;;;;;;;18.23;3.65;;;16.80;87.70;;;;;;5029228;28;20104;-70
2023/01/06 06:05:00;;;;;;;12.95;2.95;;;16.80;87.90;;;;;;5029663;28;20085;-71
2023/01/06 06:07:26;;;;;;;9.50;2.58;;;16.80;87.90;;;;;;5029332;28;20569;-69
2023/01/06 06:09:52;;;;;;;14.00;3.50;;;16.80;88.10;;;;;;5029337;28;20128;-68
2023/01/06 06:12:19;;;;;;;16.75;4.00;;;16.70;88.50;;;;;;5028916;28;20147;-69
2023/01/06 06:14:45;;;;;;;12.48;3.70;;;16.70;88.70;;;;;;5028879;28;20070;-68
2023/01/06 06:17:12;;;;;;;16.92;3.17;;;16.70;89.00;;;;;;5032293;28;20074;-68
2023/01/06 06:19:38;;;;;;;14.60;3.45;;;16.60;89.30;;;;;;5031563;28;20446;-68
2023/01/06 06:22:04;;;;;;;13.82;3.20;;;16.50;89.70;;;;;;5032603;28;20161;-68
2023/01/06 06:24:31;;;;;;;12.20;3.25;;;16.50;90.00;;;;;;5032901;28;20077;-69
2023/01/06 06:26:57;;;;;;;17.88;3.92;;;16.40;90.10;;;;;;5032661;28;20129;-70
2023/01/06 06:29:24;;;;;;;11.95;2.83;;;16.40;90.20;;;;;;5032463;28;20086;-69
2023/01/06 06:31:50;;;;;;;24.48;3.40;;;16.40;90.20;;;;;;5032450;28;20543;-68
2023/01/06 06:34:16;;;;;;;13.38;3.03;;;16.50;90.20;;;;;;5032570;28;20443;-68
2023/01/06 06:36:43;;;;;;;14.40;2.90;;;16.40;90.20;;;;;;5032960;28;20078;-67
2023/01/06 06:39:09;;;;;;;16.05;3.25;;;16.40;90.30;;;;;;5032305;28;20117;-70
2023/01/06 06:41:36;;;;;;;15.82;3.80;;;16.40;90.50;;;;;;5033072;28;20084;-68
2023/01/06 06:44:02;;;;;;;15.43;2.92;;;16.40;90.40;;;;;;5033101;28;20139;-68
2023/01/06 06:46:29;;;;;;;14.88;3.78;;;16.30;90.30;;;;;;5033754;28;20077;-67
2023/01/06 06:48:55;;;;;;;14.80;3.83;;;16.30;90.80;;;;;;5031954;28;20094;-68
2023/01/06 06:51:23;;;;;;;17.67;4.28;;;16.20;90.30;;;;;;5032165;28;20180;-68
2023/01/06 06:53:50;;;;;;;14.57;3.25;;;16.20;90.30;;;;;;5030963;28;20077;-68
2023/01/06 06:56:18;;;;;;;11.57;2.85;;;16.20;90.20;;;;;;5031948;28;20121;-70
2023/01/06 06:58:45;;;;;;;14.07;3.25;;;16.10;90.20;;;;;;5031140;28;20074;-69
2023/01/06 07:01:19;;;;;;;15.60;3.50;;;16.10;90.30;;;;;;5031286;28;20132;-70
2023/01/06 07:03:47;;;;;;;14.82;3.95;;;16.10;90.50;;;;;;5031992;28;20156;-68
2023/01/06 07:06:16;;;;;;;15.25;3.25;;;16.00;90.50;;;;;;5032535;28;20438;-68
2023/01/06 07:08:45;;;;;;;13.30;3.10;;;16.10;90.60;;;;;;5031539;28;20095;-68
2023/01/06 07:11:11;;;;;;;18.13;3.55;;;16.10;90.80;;;;;;5030354;28;20500;-72
2023/01/06 07:13:38;;;;;;;19.77;3.25;;;16.00;90.90;;;;;;5030286;28;20128;-67
2023/01/06 07:16:05;;;;;;;16.15;3.53;;;15.90;91.30;;;;;;5030490;28;20074;-67
2023/01/06 07:18:31;;;;;;;16.80;3.50;;;15.90;90.90;;;;;;5031841;28;20264;-72
2023/01/06 07:20:58;;;;;;;14.43;3.17;;;15.90;90.80;;;;;;5031315;28;20080;-68
2023/01/06 07:23:24;;;;;;;13.02;3.63;;;15.80;91.00;;;;;;5033100;28;20070;-64
2023/01/06 07:25:56;;;;;;;20.40;3.67;;;15.80;91.10;;;;;;5034397;28;20594;-71
2023/01/06 07:28:23;;;;;;;16.20;3.60;;;15.70;91.40;;;;;;5031147;28;20570;-66
2023/01/06 07:30:50;;;;;;;12.93;3.17;;;15.70;91.10;;;;;;5030579;28;20086;-69
2023/01/06 07:33:17;;;;;;;20.65;3.90;;;15.70;91.00;;;;;;5031663;28;20176;-68
2023/01/06 07:35:43;;;;;;;17.92;4.07;;;15.70;91.40;;;;;;5032665;28;20070;-67
2023/01/06 07:38:10;;;;;;;14.98;3.53;;;15.70;91.10;;;;;;5031458;28;20200;-67
2023/01/06 07:40:37;;;;;;;14.27;3.85;;;15.70;91.20;;;;;;5032389;28;20187;-66
2023/01/06 07:43:08;;;;;;;18.60;3.38;;;15.60;91.40;;;;;;5031396;28;20110;-69
2023/01/06 07:45:35;;;;;;;17.70;3.50;;;15.60;91.50;;;;;;5030321;28;20457;-68
2023/01/06 07:48:01;;;;;;;10.35;3.22;;;15.50;91.60;;;;;;5031441;28;20232;-66
2023/01/06 07:50:28;;;;;;;14.90;3.13;;;15.50;91.50;;;;;;5031938;28;20120;-67
2023/01/06 07:52:59;;;;;;;13.90;3.35;;;15.50;91.30;;;;;;5031548;28;20074;-67
2023/01/06 07:55:25;;;;;;;15.40;3.20;;;15.50;90.90;;;;;;5031696;28;20066;-66
2023/01/06 07:57:53;;;;;;;16.98;3.42;;;15.60;90.30;;;;;;5031526;28;20124;-66
2023/01/06 08:00:19;;;;;;;10.77;3.15;;;15.60;90.20;;;;;;5031123;28;20080;-67
2023/01/06 08:02:46;;;;;;;11.38;2.90;;;15.70;90.00;;;;;;5030209;28;20078;-68
2023/01/06 08:05:12;;;;;;;13.35;3.80;;;15.80;89.90;;;;;;5036618;28;20085;-65
2023/01/06 08:07:38;;;;;;;16.52;3.53;;;15.80;89.90;;;;;;5032409;28;20082;-66
2023/01/06 08:10:06;;;;;;;17.55;4.45;;;15.80;89.90;;;;;;5030926;28;20168;-66
2023/01/06 08:12:32;;;;;;;17.73;4.53;;;15.80;89.80;;;;;;5030922;28;20096;-66
2023/01/06 08:14:58;;;;;;;15.07;4.22;;;15.80;89.80;;;;;;5031028;28;20120;-68
2023/01/06 08:17:25;;;;;;;13.80;3.60;;;15.80;89.80;;;;;;5031018;28;20611;-66
2023/01/06 08:19:51;;;;;;;18.25;3.78;;;15.70;89.90;;;;;;5031868;28;20153;-69
2023/01/06 08:22:18;;;;;;;10.32;3.20;;;15.80;89.80;;;;;;5029704;28;20070;-70
2023/01/06 08:24:44;;;;;;;11.73;3.35;;;15.70;90.00;;;;;;5029265;28;20074;-70
2023/01/06 08:27:10;;;;;;;13.82;2.80;;;15.80;90.00;;;;;;5030513;28;20082;-70
2023/01/06 08:29:37;;;;;;;17.25;3.08;;;15.80;90.10;;;;;;5029762;28;20086;-67
2023/01/06 08:32:03;;;;;;;12.05;3.13;;;15.80;90.20;;;;;;5029693;28;20123;-72
2023/01/06 08:34:29;;;;;;;15.90;2.80;;;15.80;90.50;;;;;;5030617;28;20104;-68
2023/01/06 08:36:56;;;;;;;17.83;3.15;;;15.70;90.70;;;;;;5031889;28;20528;-68
2023/01/06 08:39:22;;;;;;;13.30;2.83;;;15.60;91.00;;;;;;5029659;28;20089;-67
2023/01/06 08:41:50;;;;;;;15.07;2.58;;;15.60;91.20;;;;;;5030198;28;20078;-68
2023/01/06 08:44:17;;;;;;;19.33;3.42;;;15.60;91.40;;;;;;5030092;28;20078;-67
2023/01/06 08:46:44;;;;;;;10.20;2.55;;;15.50;91.40;;;;;;5028690;28;20089;-68
2023/01/06 08:49:10;;;;;;;15.70;3.05;;;15.50;91.40;;;;;;5029806;28;20089;-70
2023/01/06 08:51:37;;;;;;;12.82;2.58;;;15.50;91.30;;;;;;5030278;28;20426;-69
2023/01/06 08:54:04;;;;;;;16.45;3.25;;;15.50;91.40;;;;;;5029735;28;20416;-68
2023/01/06 08:56:31;;;;;;;10.45;2.72;;;15.50;91.30;;;;;;5030145;28;20554;-68
2023/01/06 08:59:00;;;;;;;13.88;3.00;;;15.40;91.10;;;;;;5029503;28;20094;-69
2023/01/06 09:01:33;;;;;;;12.60;2.80;;;15.40;91.20;;;;;;5029527;28;20100;-71
2023/01/06 09:04:01;;;;;;;10.15;2.60;;;15.40;91.00;;;;;;5029684;28;20089;-68
2023/01/06 09:06:28;;;;;;;11.95;2.63;;;15.40;91.30;;;;;;5030437;28;20088;-67
2023/01/06 09:08:55;;;;;;;13.82;2.58;;;15.30;91.30;;;;;;5030255;28;20169;-68
2023/01/06 09:11:22;;;;;;;14.60;2.80;;;15.30;91.40;;;;;;5029330;28;20089;-68
2023/01/06 09:13:50;;;;;;;15.55;2.67;;;15.20;91.30;;;;;;5030014;28;20157;-68
2023/01/06 09:16:17;;;;;;;13.40;2.58;;;15.30;91.40;;;;;;5028543;28;20129;-66
2023/01/06 09:18:48;;;;;;;13.23;2.78;;;15.20;91.50;;;;;;5028491;28;20081;-66
2023/01/06 09:21:16;;;;;;;15.52;2.55;;;15.10;91.60;;;;;;5028937;28;20535;-67
2023/01/06 09:23:42;;;;;;;12.40;2.88;;;15.10;91.40;;;;;;5029530;28;20180;-67
2023/01/06 09:26:09;;;;;;;9.90;2.53;;;15.10;91.40;;;;;;5027886;28;20575;-68
2023/01/06 09:28:36;;;;;;;11.68;2.55;;;15.10;91.40;;;;;;5030443;28;20123;-66
2023/01/06 09:31:02;;;;;;;11.35;2.75;;;15.10;91.40;;;;;;5027727;28;20094;-68
2023/01/06 09:33:28;;;;;;;13.68;2.83;;;15.00;91.40;;;;;;5029583;28;20070;-67
2023/01/06 09:35:54;;;;;;;;;;;14.90;91.60;;;;;;5030273;28;20070;-68
2023/01/06 09:38:21;;;;;;;11.88;2.80;;;14.80;91.70;;;;;;5029556;28;19957;-68
2023/01/06 09:41:05;;;;;;;19.23;3.50;;;14.80;91.60;;;;;;5029697;28;20124;-68
2023/01/06 09:44:03;;;;;;;16.02;2.83;;;14.80;91.50;;;;;;5028573;28;20093;-67
2023/01/06 09:46:31;;;;;;;;;;;14.80;91.60;;;;;;5029388;28;20077;-66
2023/01/06 09:49:19;;;;;;;14.63;3.33;;;14.80;91.60;;;;;;5030150;28;19957;-68
2023/01/06 09:51:46;;;;;;;10.30;2.75;;;14.80;91.70;;;;;;5032817;28;20062;-68
2023/01/06 09:54:41;;;;;;;16.58;3.35;;;14.70;91.80;;;;;;5033316;28;20412;-69
2023/01/06 09:57:19;;;;;;;16.50;3.63;;;14.50;92.00;;;;;;5032404;28;20074;-69
2023/01/06 09:59:59;;;;;;;12.55;3.22;;;14.50;92.10;;;;;;5030535;28;20074;-68
2023/01/06 10:02:32;;;;;;;14.63;3.53;;;14.50;92.10;;;;;;5033069;28;20077;-69
2023/01/06 10:04:58;;;;;;;16.25;3.17;;;14.50;92.20;;;;;;5032803;28;20074;-69
2023/01/06 10:07:45;;;;;;;;;;;14.50;92.30;;;;;;5032984;28;21579;-69
2023/01/06 10:10:37;;;;;;;14.05;3.15;;;14.50;92.20;;;;;;5032385;28;20023;-68
2023/01/06 10:13:16;;;;;;;14.18;3.10;;;14.40;92.50;;;;;;5032814;28;20091;-69
2023/01/06 10:16:04;;;;;;;13.07;3.22;;;14.40;92.70;;;;;;5032709;28;20073;-68
2023/01/06 10:18:59;;;;;;;17.02;3.78;;;14.40;92.80;;;;;;5031785;28;20073;-69
2023/01/06 10:21:33;;;;;;;17.48;3.63;;;14.40;93.10;;;;;;5027337;28;20554;-69
2023/01/06 10:24:09;;;;;;;15.65;3.55;;;14.30;93.10;;;;;;5032331;28;20535;-71
2023/01/06 10:26:58;;;;;;;14.43;3.35;;;14.20;93.00;;;;;;5032538;28;20159;-69
2023/01/06 10:29:31;;;;;;;16.25;3.47;;;14.20;93.10;;;;;;5031823;28;20247;-67
2023/01/06 10:32:00;;;;;;;15.05;4.65;;;14.10;93.30;;;;;;5032518;28;20081;-67
2023/01/06 10:34:28;;;;;;;14.55;3.20;;;14.00;93.70;;;;;;5030454;28;20077;-69
2023/01/06 10:37:08;;;;;;;16.70;3.85;;;13.90;93.60;;;;;;5032464;28;20093;-69
2023/01/06 10:39:38;;;;;;;14.13;3.65;;;13.90;93.90;;;;;;5032423;28;20070;-69
2023/01/06 10:45:11;;;;;;;18.45;3.78;;;13.90;93.90;;;;;;5032028;28;20085;-69
2023/01/06 10:47:40;;;;;;;15.75;3.88;;;13.90;93.70;;;;;;5032252;28;20093;-69
2023/01/06 10:50:11;;;;;;;15.57;2.80;;;14.00;93.60;;;;;;5032417;28;20090;-69
2023/01/06 10:52:38;;;;;;;10.65;2.65;;;13.90;93.40;;;;;;5032171;28;20153;-68
2023/01/06 10:55:05;;;;;;;9.57;2.25;;;13.90;93.20;;;;;;5032011;28;20587;-68
2023/01/06 10:57:40;;;;;;;10.60;2.83;;;13.90;92.90;;;;;;5032057;28;20169;-71
2023/01/06 11:00:17;;;;;;;13.45;2.30;;;13.90;92.90;;;;;;5031848;28;20096;-67
2023/01/06 11:02:45;;;;;;;;;;;14.00;92.80;;;;;;5031387;28;20554;-68
2023/01/06 11:05:31;;;;;;;11.48;3.20;;;14.00;92.80;;;;;;5032080;28;19968;-69
2023/01/06 11:08:06;;;;;;;15.77;3.08;;;14.00;92.80;;;;;;5031114;28;20102;-66
2023/01/06 11:10:59;;;;;;;13.43;2.72;;;14.00;93.20;;;;;;5032669;28;20104;-69
2023/01/06 11:13:28;;;;;;;14.15;2.65;;;14.10;93.10;;;;;;5031264;28;20169;-68
2023/01/06 11:15:55;;;;;;;13.75;2.72;;;14.10;92.90;;;;;;5031951;28;20203;-70
2023/01/06 11:18:30;;;;;;;14.95;2.90;;;14.10;92.90;;;;;;5031669;28;20096;-68
2023/01/06 11:21:09;;;;;;;13.02;3.25;;;14.10;92.90;;;;;;5031775;28;20077;-69
2023/01/06 11:23:37;;;;;;;10.48;2.65;;;14.10;92.90;;;;;;5032305;28;20550;-68
2023/01/06 11:26:15;;;;;;;14.90;2.97;;;14.10;92.80;;;;;;5031571;28;20120;-69
2023/01/06 11:28:46;;;;;;;17.05;3.60;;;14.10;93.00;;;;;;5030591;28;20151;-69
2023/01/06 11:31:27;;;;;;;13.98;3.28;;;14.10;93.00;;;;;;5030786;28;20168;-68
2023/01/06 11:33:58;;;;;;;16.17;2.97;;;14.10;93.10;;;;;;5030505;28;20074;-67
2023/01/06 11:36:27;;;;;;;16.10;3.03;;;14.20;93.20;;;;;;5030271;28;20105;-66
2023/01/06 11:38:58;;;;;;;17.27;3.10;;;14.20;93.30;;;;;;5031142;28;20542;-68
2023/01/06 11:41:51;;;;;;;10.45;2.60;;;14.10;93.40;;;;;;5032735;28;20085;-68
2023/01/06 11:44:35;;;;;;;10.82;2.58;;;14.00;93.40;;;;;;5029346;28;20173;-69
2023/01/06 11:47:27;;;;;;;18.40;3.28;;;14.00;93.50;;;;;;5031351;28;20589;-69
2023/01/06 11:49:57;;;;;;;16.25;3.47;;;13.90;93.30;;;;;;5028797;28;20471;-68
2023/01/06 11:52:29;;;;;;;16.55;2.95;;;13.90;93.20;;;;;;5030963;28;20441;-70
2023/01/06 11:55:09;;;;;;;14.57;3.42;;;13.90;93.20;;;;;;5031406;28;20066;-69
2023/01/06 11:57:49;;;;;;;16.70;3.70;;;14.00;93.20;;;;;;5029516;28;20148;-68
2023/01/06 12:00:32;;;;;;;15.10;3.45;;;14.00;93.20;;;;;;5030746;28;20156;-67
2023/01/06 12:03:14;;;;;;;13.43;3.05;;;14.00;93.40;;;;;;5032098;28;20070;-66
2023/01/06 12:05:59;;;;;;;14.90;3.53;;;14.00;93.50;;;;;;5030878;28;20074;-68
2023/01/06 12:09:00;;;;;;;15.27;3.60;;;13.90;93.50;;;;;;5030562;28;20073;-69
2023/01/06 12:11:39;;;;;;;18.58;3.40;;;13.80;93.60;;;;;;5031204;28;20073;-68
2023/01/06 12:14:12;;;;;;;19.42;3.60;;;13.80;93.60;;;;;;5031503;28;20139;-68
2023/01/06 12:16:53;;;;;;;15.45;3.78;;;13.70;93.60;;;;;;5030087;28;20077;-71
2023/01/06 12:19:38;;;;;;;17.02;3.92;;;13.70;93.60;;;;;;5029892;28;20091;-67
2023/01/06 12:22:13;;;;;;;22.05;4.40;;;13.60;93.70;;;;;;5029792;28;20100;-68
2023/01/06 12:24:40;;;;;;;18.67;4.32;;;13.70;94.10;;;;;;5029198;28;20077;-69
2023/01/06 12:27:09;;;;;;;19.70;4.72;;;13.70;94.00;;;;;;5030402;28;20102;-73
2023/01/06 12:29:37;;;;;;;14.73;4.30;;;13.70;94.10;;;;;;5029539;28;20183;-71
2023/01/06 12:32:22;;;;;;;20.90;4.05;;;13.70;94.30;;;;;;5029299;28;20069;-69
2023/01/06 12:34:51;;;;;;;18.42;3.97;;;13.60;94.50;;;;;;5030157;28;20119;-68
2023/01/06 12:37:43;;;;;;;19.33;4.07;;;13.50;94.30;;;;;;5030263;28;20073;-68
2023/01/06 12:40:20;;;;;;;17.20;4.15;;;13.50;94.40;;;;;;5029253;28;20098;-68
2023/01/06 12:42:46;;;;;;;;;;;13.30;94.60;;;;;;5031512;28;20087;-70
2023/01/06 12:45:22;;;;;;;15.68;4.05;;;13.40;94.70;;;;;;5030205;28;19961;-69
2023/01/06 12:47:57;;;;;;;19.02;4.20;;;13.30;94.70;;;;;;5031580;28;20104;-71
2023/01/06 12:50:46;;;;;;;17.92;4.28;;;13.30;95.10;;;;;;5029614;28;20089;-67
2023/01/06 12:53:31;;;;;;;18.13;4.28;;;13.20;95.30;;;;;;5029480;28;20108;-69
2023/01/06 12:56:12;;;;;;;17.10;3.75;;;13.20;95.30;;;;;;5029417;28;20094;-67
2023/01/06 12:59:15;;;;;;;18.00;3.83;;;13.10;96.10;;;;;;5030066;28;20070;-70
2023/01/06 13:01:48;;;;;;;21.13;3.80;;;13.00;95.60;;;;;;5028588;28;20101;-66
2023/01/06 13:04:42;;;;;;;20.48;4.15;;;13.00;95.70;;;;;;5028997;28;20080;-72
2023/01/06 13:07:26;;;;;;;21.42;4.68;;;13.00;96.10;;;;;;5029286;28;20093;-69
2023/01/06 13:10:09;;;;;;;19.70;4.18;;;13.00;96.10;;;;;;5029868;28;20086;-69